Fort Irwin, California
Current Conditions -  °F | °C
As of 4:55 PM on Friday 28 Nov 2014 (Local Time) from KBYS Reporting Station
Clear Clear  
Wind Chill: 64°   Ceiling: Unl
Heat Index: 64°   Visibility: 10mi
Dew Point: 13°   Wind: 5mph
Humidity: 14%   Direction: 160°SSE
Pressure: 29.91"   Gusts: NA
Location:  35.12°N, 116.9°W
Report Text: KBYS 290055Z AUTO 16004KT 10SM CLR 18/M10 A2991 RMK AO2 SLP123 T01781105 $
Loading
Personal Weather Stations






























Interactive Weather Map New forecast layout! Learn more

10-Day Weather Forecast

Advertisements
Track Severe Weather on mobile